Time;durP1;ratioP1;P1;durP2;ratioP2;P2;SDS_P1;SDS_P2;PMS_P1;PMS_P2;Temp;Humidity;BMP_temperature;BMP_pressure;BME280_temperature;BME280_humidity;BME280_pressure;Samples;Min_cycle;Max_cycle;Signal;HPM_P1;HPM_P2
2023/01/02 00:01:41;;;;;;;8.87;4.10;;;;;;;10.76;100.00;101366.63;5018841;28;20755;-76
2023/01/02 00:04:07;;;;;;;10.10;4.27;;;;;;;10.75;100.00;101364.91;5048572;28;20206;-76
2023/01/02 00:06:34;;;;;;;10.27;4.13;;;;;;;10.77;100.00;101370.91;5030245;28;20288;-76
2023/01/02 00:09:00;;;;;;;13.70;5.07;;;;;;;10.76;100.00;101366.63;5039777;28;20796;-76
2023/01/02 00:11:26;;;;;;;8.50;4.60;;;;;;;10.73;100.00;101359.72;5032275;28;20313;-76
2023/01/02 00:13:52;;;;;;;9.13;4.10;;;;;;;10.78;100.00;101362.44;5037013;28;20297;-76
2023/01/02 00:16:17;;;;;;;9.47;4.37;;;;;;;10.77;100.00;101361.53;5008207;28;20213;-76
2023/01/02 00:18:43;;;;;;;9.20;4.73;;;;;;;10.75;100.00;101357.22;5045533;28;20244;-76
2023/01/02 00:21:08;;;;;;;8.70;4.77;;;;;;;10.76;100.00;101352.13;5043442;28;20206;-76
2023/01/02 00:23:34;;;;;;;9.50;4.93;;;;;;;10.77;100.00;101350.41;5041175;28;20194;-77
2023/01/02 00:26:00;;;;;;;10.00;4.37;;;;;;;10.76;100.00;101351.25;5046315;28;20210;-76
2023/01/02 00:28:25;;;;;;;7.60;4.20;;;;;;;10.75;100.00;101331.59;5041912;28;20256;-76
2023/01/02 00:30:51;;;;;;;7.30;4.60;;;;;;;10.74;100.00;101335.00;5049488;28;20219;-76
2023/01/02 00:33:16;;;;;;;6.30;4.20;;;;;;;10.72;100.00;101324.69;5047043;28;20198;-76
2023/01/02 00:35:42;;;;;;;11.10;5.03;;;;;;;10.70;100.00;101317.81;5047650;28;20194;-76
2023/01/02 00:38:08;;;;;;;8.90;5.10;;;;;;;10.70;100.00;101307.56;5041494;28;20559;-76
2023/01/02 00:40:33;;;;;;;10.40;5.07;;;;;;;10.67;100.00;101300.66;5043894;28;20222;-76
2023/01/02 00:43:00;;;;;;;8.07;4.73;;;;;;;10.66;100.00;101296.38;5048113;28;20542;-76
2023/01/02 00:45:26;;;;;;;8.20;5.43;;;;;;;10.64;100.00;101281.81;5047428;28;20217;-76
2023/01/02 00:47:51;;;;;;;7.80;4.70;;;;;;;10.64;100.00;101282.66;5050310;28;20194;-76
2023/01/02 00:50:16;;;;;;;8.83;5.17;;;;;;;10.64;100.00;101274.97;5026262;28;21070;-76
2023/01/02 00:52:42;;;;;;;8.17;4.43;;;;;;;10.64;100.00;101274.97;5025937;28;20659;-76
2023/01/02 00:55:08;;;;;;;8.87;4.33;;;;;;;10.60;100.00;101262.06;5045538;28;20217;-75
2023/01/02 00:57:34;;;;;;;12.10;4.73;;;;;;;10.61;100.00;101256.09;5043756;28;20190;-76
2023/01/02 00:59:59;;;;;;;8.40;4.73;;;;;;;10.62;100.00;101255.25;5035892;28;20218;-76
2023/01/02 01:02:25;;;;;;;7.93;4.60;;;;;;;10.58;100.00;101241.53;5044121;28;20255;-76
2023/01/02 01:04:50;;;;;;;8.87;4.77;;;;;;;10.58;100.00;101244.09;5041462;28;20198;-77
2023/01/02 01:07:16;;;;;;;9.80;4.80;;;;;;;10.61;100.00;101240.72;5029116;28;20231;-76
2023/01/02 01:09:41;;;;;;;7.80;4.70;;;;;;;10.61;100.00;101228.81;5045978;28;20777;-76
2023/01/02 01:12:07;;;;;;;10.70;5.87;;;;;;;10.61;100.00;101223.69;5040794;28;20206;-75
2023/01/02 01:14:32;;;;;;;11.57;5.13;;;;;;;10.64;100.00;101216.06;5036910;28;20195;-76
2023/01/02 01:16:58;;;;;;;9.83;5.30;;;;;;;10.62;100.00;101222.84;5022802;28;20690;-76
2023/01/02 01:19:28;;;;;;;10.47;4.97;;;;;;;10.63;100.00;101198.97;5042559;28;20225;-76
2023/01/02 01:21:53;;;;;;;8.37;5.17;;;;;;;10.64;100.00;101189.59;5039921;28;20273;-76
2023/01/02 01:24:19;;;;;;;9.63;5.70;;;;;;;10.66;100.00;101203.31;5023068;28;20616;-77
2023/01/02 01:26:44;;;;;;;11.13;5.53;;;;;;;10.68;100.00;101196.50;5033445;28;20264;-76
2023/01/02 01:29:10;;;;;;;10.67;6.10;;;;;;;10.68;100.00;101201.63;5045506;28;20305;-76
2023/01/02 01:31:35;;;;;;;9.73;5.63;;;;;;;10.69;100.00;101211.91;5045988;28;20221;-76
2023/01/02 01:34:00;;;;;;;9.33;5.90;;;;;;;10.70;100.00;101205.13;5016908;28;20572;-76
2023/01/02 01:36:26;;;;;;;9.87;5.23;;;;;;;10.70;100.00;101205.97;5040129;28;20186;-76
2023/01/02 01:38:51;;;;;;;10.83;5.93;;;;;;;10.71;100.00;101214.53;5046244;28;20190;-76
2023/01/02 01:41:19;;;;;;;9.00;5.77;;;;;;;10.71;100.00;101200.03;5029849;28;20706;-76
2023/01/02 01:43:49;;;;;;;10.20;5.53;;;;;;;10.73;100.00;101197.53;5030595;28;20502;-76
2023/01/02 01:46:20;;;;;;;11.20;6.13;;;;;;;10.73;100.00;101193.25;5028352;28;20265;-76
2023/01/02 01:48:48;;;;;;;10.17;6.63;;;;;;;10.76;100.00;101193.31;5041199;28;20590;-76
2023/01/02 01:51:15;;;;;;;10.27;6.27;;;;;;;10.77;100.00;101186.50;5040469;28;20205;-76
2023/01/02 01:53:44;;;;;;;11.23;5.93;;;;;;;10.78;100.00;101183.97;5054845;28;20217;-76
2023/01/02 01:56:12;;;;;;;10.57;6.30;;;;;;;10.79;100.00;101178.00;5030482;28;20552;-74
2023/01/02 01:58:42;;;;;;;15.93;6.87;;;;;;;10.80;100.00;101171.19;5029129;28;20934;-76
2023/01/02 02:01:14;;;;;;;11.97;6.50;;;;;;;10.82;100.00;101175.53;5041967;28;20251;-75
2023/01/02 02:03:43;;;;;;;11.43;6.43;;;;;;;10.82;100.00;101174.66;5045733;28;20194;-76
2023/01/02 02:06:09;;;;;;;12.50;6.97;;;;;;;10.83;100.00;101159.31;5041838;28;20186;-76
2023/01/02 02:08:56;;;;;;;11.00;6.80;;;;;;;10.84;100.00;101157.63;5048280;28;20228;-75
2023/01/02 02:11:21;;;;;;;12.53;7.13;;;;;;;10.84;100.00;101145.72;5020907;28;20217;-76
2023/01/02 02:13:48;;;;;;;11.80;6.70;;;;;;;10.85;100.00;101146.56;5048621;28;20204;-76
2023/01/02 02:16:13;;;;;;;12.27;6.73;;;;;;;10.86;100.00;101149.16;5050016;28;20269;-76
2023/01/02 02:18:57;;;;;;;12.90;6.60;;;;;;;10.87;100.00;101155.16;5049990;28;20327;-76
2023/01/02 02:21:45;;;;;;;13.13;6.17;;;;;;;10.87;100.00;101134.66;5020412;28;20613;-76
2023/01/02 02:24:44;;;;;;;9.93;5.60;;;;;;;10.89;100.00;101139.00;5042584;28;20553;-76
2023/01/02 02:27:40;;;;;;;10.67;6.37;;;;;;;10.90;100.00;101135.59;5045774;28;20193;-75
2023/01/02 02:30:17;;;;;;;15.30;6.77;;;;;;;10.91;100.00;101137.31;5033665;28;20210;-77
2023/01/02 02:33:19;;;;;;;11.87;6.10;;;;;;;10.93;100.00;101137.34;5039287;28;20194;-76
2023/01/02 02:36:17;;;;;;;10.03;6.13;;;;;;;10.94;100.00;101122.03;5031067;28;20197;-76
2023/01/02 02:39:04;;;;;;;11.20;6.23;;;;;;;10.96;100.00;101115.22;5010908;28;20202;-76
2023/01/02 02:42:01;;;;;;;9.80;6.50;;;;;;;10.98;100.00;101115.25;5039883;28;20304;-76
2023/01/02 02:44:42;;;;;;;10.93;6.40;;;;;;;11.00;100.00;101117.03;5044150;28;20672;-75
2023/01/02 02:47:15;;;;;;;11.03;6.10;;;;;;;11.02;100.00;101119.63;5041741;28;20202;-75
2023/01/02 02:50:02;;;;;;;14.03;6.33;;;;;;;11.04;100.00;101111.13;5040348;28;20226;-76
2023/01/02 02:52:37;;;;;;;10.33;5.50;;;;;;;11.03;100.00;101106.84;5044410;28;20193;-75
2023/01/02 02:55:32;;;;;;;15.90;6.60;;;;;;;11.07;100.00;101111.19;5048944;28;20556;-75
2023/01/02 02:57:59;;;;;;;14.67;6.23;;;;;;;11.08;100.00;101100.13;5048366;28;20282;-75
2023/01/02 03:00:25;;;;;;;11.30;5.43;;;;;;;11.08;100.00;101101.81;5031129;28;20218;-76
2023/01/02 03:02:50;;;;;;;10.40;5.70;;;;;;;11.09;100.00;101093.28;5046202;28;20250;-75
2023/01/02 03:05:28;;;;;;;10.20;5.57;;;;;;;11.13;100.00;101097.66;5037170;28;20304;-76
2023/01/02 03:08:00;;;;;;;8.00;5.30;;;;;;;11.12;100.00;101089.13;5037521;28;20190;-76
2023/01/02 03:10:48;;;;;;;10.30;5.47;;;;;;;11.13;100.00;101079.72;5030431;28;20296;-76
2023/01/02 03:13:38;;;;;;;12.10;5.57;;;;;;;11.15;100.00;101070.38;5033933;28;20194;-76
2023/01/02 03:16:21;;;;;;;10.27;6.10;;;;;;;11.16;100.00;101069.53;5044775;28;20256;-76
2023/01/02 03:18:56;;;;;;;10.53;4.93;;;;;;;11.17;100.00;101071.25;5045542;28;20268;-76
2023/01/02 03:21:32;;;;;;;10.67;5.77;;;;;;;11.19;100.00;101069.56;5048911;28;20232;-76
2023/01/02 03:24:04;;;;;;;10.17;5.53;;;;;;;11.20;100.00;101067.03;5048199;28;20292;-76
2023/01/02 03:26:32;;;;;;;8.43;5.50;;;;;;;11.21;100.00;101057.66;5046778;28;20217;-76
2023/01/02 03:29:06;;;;;;;12.87;5.27;;;;;;;11.22;100.00;101061.94;5047136;28;20225;-76
2023/01/02 03:31:37;;;;;;;11.37;5.83;;;;;;;11.23;100.00;101059.44;5033550;28;20240;-76
2023/01/02 03:34:09;;;;;;;9.93;5.70;;;;;;;11.27;100.00;101073.16;5029985;28;20181;-76
2023/01/02 03:36:38;;;;;;;8.27;5.17;;;;;;;11.29;100.00;101071.50;5048181;28;20810;-73
2023/01/02 03:39:22;;;;;;;9.37;5.77;;;;;;;11.29;100.00;101067.22;5045495;28;20240;-76
2023/01/02 03:41:56;;;;;;;9.17;5.20;;;;;;;11.35;100.00;101066.50;5045298;28;20208;-77
2023/01/02 03:44:27;;;;;;;15.20;5.10;;;;;;;11.34;100.00;101065.63;5048832;28;20243;-76
2023/01/02 03:47:02;;;;;;;13.77;5.47;;;;;;;11.36;100.00;101065.66;5042435;28;20209;-76
2023/01/02 03:49:40;;;;;;;15.73;5.63;;;;;;;11.40;100.00;101062.31;5035790;28;21001;-76
2023/01/02 03:52:05;;;;;;;10.83;5.50;;;;;;;11.45;100.00;101066.72;5045046;28;20228;-76
2023/01/02 03:54:31;;;;;;;11.17;5.10;;;;;;;11.52;100.00;101068.53;5029567;28;20682;-76
2023/01/02 03:57:01;;;;;;;10.30;5.33;;;;;;;11.52;100.00;101065.97;5047332;28;20202;-76
2023/01/02 03:59:47;;;;;;;11.53;4.70;;;;;;;11.56;100.00;101072.06;5045852;28;20232;-76
2023/01/02 04:02:28;;;;;;;10.93;5.33;;;;;;;11.62;100.00;101059.38;5041960;28;20209;-76
2023/01/02 04:04:57;;;;;;;10.20;5.00;;;;;;;11.61;100.00;101055.09;5050050;28;20201;-76
2023/01/02 04:07:44;;;;;;;10.80;4.70;;;;;;;11.61;100.00;101049.94;5051399;28;20288;-76
2023/01/02 04:10:12;;;;;;;10.03;5.00;;;;;;;11.63;100.00;101050.81;5044172;28;20213;-76
2023/01/02 04:12:43;;;;;;;12.03;4.67;;;;;;;11.64;100.00;101056.00;5057551;28;20205;-75
2023/01/02 04:15:12;;;;;;;12.53;4.63;;;;;;;11.67;100.00;101053.50;5052865;28;20249;-76
2023/01/02 04:17:47;;;;;;;11.23;4.77;;;;;;;11.67;100.00;101055.19;5050364;28;20285;-76
2023/01/02 04:20:22;;;;;;;10.03;4.70;;;;;;;11.67;100.00;101050.94;5049911;28;20201;-76
2023/01/02 04:22:56;;;;;;;9.30;4.87;;;;;;;11.75;100.00;101051.06;5040498;28;20208;-76
2023/01/02 04:25:28;;;;;;;11.47;4.57;;;;;;;11.75;100.00;101045.94;5045206;28;20247;-76
2023/01/02 04:27:58;;;;;;;12.63;5.00;;;;;;;11.74;100.00;101046.75;5048762;28;20251;-76
2023/01/02 04:30:24;;;;;;;17.37;5.43;;;;;;;11.75;100.00;101046.78;5048897;28;20245;-76
2023/01/02 04:32:50;;;;;;;12.37;5.27;;;;;;;11.76;100.00;101040.81;5042196;28;20204;-76
2023/01/02 04:35:19;;;;;;;10.90;4.87;;;;;;;11.75;100.00;101041.66;5050208;28;20742;-76
2023/01/02 04:37:45;;;;;;;9.27;4.63;;;;;;;11.74;100.00;101046.75;5029331;28;20198;-76
2023/01/02 04:40:27;;;;;;;13.57;4.80;;;;;;;11.73;100.00;101037.31;5046758;28;20217;-75
2023/01/02 04:42:53;;;;;;;10.33;4.57;;;;;;;11.73;100.00;101039.88;5049748;28;20670;-76
2023/01/02 04:45:19;;;;;;;10.73;4.97;;;;;;;11.71;100.00;101037.28;5048132;28;20205;-75
2023/01/02 04:47:47;;;;;;;7.13;4.50;;;;;;;11.72;100.00;101048.44;5047667;28;20221;-75
2023/01/02 04:50:12;;;;;;;12.00;4.90;;;;;;;11.70;100.00;101045.84;5046274;28;20268;-76
2023/01/02 04:52:38;;;;;;;10.90;4.73;;;;;;;11.71;100.00;101050.13;5030953;28;20206;-76
2023/01/02 04:55:07;;;;;;;12.80;5.87;;;;;;;11.70;100.00;101045.00;5049784;28;20200;-76
2023/01/02 04:57:33;;;;;;;11.30;5.30;;;;;;;11.70;100.00;101047.56;5049852;28;20201;-76
2023/01/02 04:59:58;;;;;;;11.60;5.00;;;;;;;11.70;100.00;101043.28;5049735;28;20198;-77
2023/01/02 05:02:24;;;;;;;10.67;5.30;;;;;;;11.70;100.00;101043.28;5046116;28;20637;-75
2023/01/02 05:04:50;;;;;;;10.27;4.90;;;;;;;11.70;100.00;101037.28;5049589;28;20718;-75
2023/01/02 05:07:15;;;;;;;10.03;4.63;;;;;;;11.71;100.00;101037.28;5050951;28;20228;-75
2023/01/02 05:09:40;;;;;;;9.20;4.90;;;;;;;11.69;100.00;101032.97;5030288;28;20221;-76
2023/01/02 05:12:06;;;;;;;11.30;5.30;;;;;;;11.67;100.00;101032.97;5026796;28;20559;-75
2023/01/02 05:14:31;;;;;;;11.07;5.07;;;;;;;11.68;100.00;101039.81;5042648;28;20185;-75
2023/01/02 05:16:57;;;;;;;13.13;5.17;;;;;;;11.66;100.00;101038.91;5048446;28;20805;-76
2023/01/02 05:19:22;;;;;;;8.73;4.50;;;;;;;11.67;100.00;101038.09;5043936;28;20662;-75
2023/01/02 05:24:31;;;;;;;11.33;4.97;;;;;;;11.67;100.00;101048.38;5047587;28;20267;-75
2023/01/02 05:26:57;;;;;;;13.73;4.77;;;;;;;11.65;100.00;101047.44;5044134;28;20202;-75
2023/01/02 05:29:22;;;;;;;7.90;4.87;;;;;;;11.62;100.00;101049.09;5049188;28;20252;-75
2023/01/02 05:31:49;;;;;;;11.83;5.10;;;;;;;11.62;100.00;101041.41;5047887;28;20213;-75
2023/01/02 05:34:15;;;;;;;15.27;5.20;;;;;;;11.62;100.00;101047.38;5047200;28;20721;-75
2023/01/02 05:36:41;;;;;;;12.63;5.13;;;;;;;11.62;100.00;101046.53;5047734;28;20186;-75
2023/01/02 05:39:08;;;;;;;10.37;4.60;;;;;;;11.64;100.00;101048.31;5031312;28;20586;-75
2023/01/02 05:41:33;;;;;;;11.50;5.30;;;;;;;11.63;100.00;101046.56;5030666;28;20194;-75
2023/01/02 05:43:58;;;;;;;9.63;5.30;;;;;;;11.67;100.00;101042.34;5042315;28;20241;-75
2023/01/02 05:46:24;;;;;;;13.07;6.13;;;;;;;11.75;100.00;101038.25;5046522;28;20194;-75
2023/01/02 05:48:49;;;;;;;8.83;5.30;;;;;;;11.79;100.00;101043.44;5048550;28;20217;-75
2023/01/02 05:51:16;;;;;;;11.07;5.23;;;;;;;11.81;100.00;101039.22;5045290;28;20217;-75
2023/01/02 05:53:42;;;;;;;13.03;5.33;;;;;;;11.89;100.00;101036.78;5049820;28;20673;-75
2023/01/02 05:56:13;;;;;;;10.53;5.40;;;;;;;11.91;100.00;101029.94;5046446;28;20190;-75
2023/01/02 05:58:41;;;;;;;14.20;5.93;;;;;;;11.92;100.00;101035.13;5049199;28;20185;-75
2023/01/02 06:01:08;;;;;;;10.20;5.17;;;;;;;11.97;100.00;101030.91;5049440;28;20209;-78
2023/01/02 06:03:33;;;;;;;9.13;4.83;;;;;;;11.99;100.00;101026.66;5026266;28;20190;-77
2023/01/02 06:06:07;;;;;;;13.67;5.73;;;;;;;12.00;100.00;101020.72;5044426;28;20275;-77
2023/01/02 06:08:33;;;;;;;12.23;5.27;;;;;;;11.99;100.00;101021.53;5043156;28;20241;-76
2023/01/02 06:10:59;;;;;;;11.33;5.13;;;;;;;11.97;100.00;101022.34;5043884;28;20217;-74
2023/01/02 06:13:24;;;;;;;14.47;5.40;;;;;;;11.96;100.00;101021.50;5045218;28;20255;-77
2023/01/02 06:15:50;;;;;;;14.53;5.70;;;;;;;11.97;100.00;101019.78;5044993;28;20553;-75
2023/01/02 06:18:16;;;;;;;8.80;5.17;;;;;;;11.95;100.00;101022.34;5047701;28;20690;-75
2023/01/02 06:20:41;;;;;;;11.37;5.57;;;;;;;11.96;100.00;101015.50;5031804;28;20573;-77
2023/01/02 06:23:06;;;;;;;12.40;6.00;;;;;;;11.95;100.00;101013.78;5040359;28;20573;-76
2023/01/02 06:25:33;;;;;;;12.50;5.43;;;;;;;11.95;100.00;101022.34;5047580;28;20198;-75
2023/01/02 06:27:58;;;;;;;14.87;5.97;;;;;;;11.95;100.00;101014.66;5047432;28;20201;-77
2023/01/02 06:30:24;;;;;;;10.67;5.77;;;;;;;11.92;100.00;101022.28;5028808;28;20225;-77
2023/01/02 06:32:49;;;;;;;9.03;5.27;;;;;;;11.91;100.00;101014.56;5049153;28;20283;-76
2023/01/02 06:35:15;;;;;;;12.87;6.57;;;;;;;11.94;100.00;101022.31;5028566;28;20209;-77
2023/01/02 06:37:43;;;;;;;11.70;6.30;;;;;;;11.89;100.00;101027.34;5048611;28;20663;-76
2023/01/02 06:40:10;;;;;;;16.07;6.97;;;;;;;11.90;100.00;101021.38;5045865;28;20201;-76
2023/01/02 06:42:36;;;;;;;12.23;6.33;;;;;;;11.91;100.00;101024.81;5049328;28;20689;-74
2023/01/02 06:45:01;;;;;;;11.87;6.10;;;;;;;11.90;100.00;101028.22;5045039;28;20726;-77
2023/01/02 06:47:27;;;;;;;14.37;6.37;;;;;;;11.90;100.00;101030.78;5049511;28;20280;-74
2023/01/02 06:49:52;;;;;;;11.13;5.90;;;;;;;11.92;100.00;101032.53;5046762;28;20589;-77
2023/01/02 06:52:18;;;;;;;14.73;7.10;;;;;;;11.91;100.00;101030.81;5045769;28;20566;-77
2023/01/02 06:54:43;;;;;;;9.43;5.93;;;;;;;11.92;100.00;101035.13;5044390;28;20232;-76
2023/01/02 06:57:08;;;;;;;13.00;6.17;;;;;;;11.92;100.00;101029.09;5046812;28;20278;-76
2023/01/02 06:59:34;;;;;;;13.40;6.37;;;;;;;11.92;100.00;101039.38;5048874;28;20209;-74
2023/01/02 07:01:59;;;;;;;10.93;6.30;;;;;;;11.92;100.00;101037.69;5047346;28;20596;-77
2023/01/02 07:04:25;;;;;;;11.07;6.27;;;;;;;11.92;100.00;101040.25;5048517;28;20655;-77
2023/01/02 07:06:50;;;;;;;10.87;6.00;;;;;;;11.94;100.00;101040.28;5042959;28;20788;-76
2023/01/02 07:09:15;;;;;;;13.70;6.30;;;;;;;11.94;100.00;101035.16;5033943;28;20222;-76
2023/01/02 07:11:41;;;;;;;13.83;6.50;;;;;;;11.95;100.00;101036.88;5041002;28;20193;-76
2023/01/02 07:14:06;;;;;;;13.77;5.60;;;;;;;11.95;100.00;101039.44;5043194;28;20199;-76
2023/01/02 07:16:32;;;;;;;10.17;5.53;;;;;;;11.93;100.00;101034.25;5042777;28;20817;-76
2023/01/02 07:18:57;;;;;;;10.33;6.00;;;;;;;11.94;100.00;101032.56;5044465;28;20240;-76
2023/01/02 07:21:23;;;;;;;13.70;6.93;;;;;;;11.92;100.00;101029.09;5045264;28;20880;-76
2023/01/02 07:23:48;;;;;;;12.30;6.80;;;;;;;11.96;100.00;101028.31;5041344;28;20193;-76
2023/01/02 07:26:14;;;;;;;11.87;6.10;;;;;;;11.93;100.00;101031.69;5028321;28;20666;-75
2023/01/02 07:28:40;;;;;;;17.30;6.00;;;;;;;11.95;100.00;101034.28;5041985;28;20209;-75
2023/01/02 07:31:10;;;;;;;13.43;5.50;;;;;;;11.94;100.00;101035.16;5044273;28;20704;-76
2023/01/02 07:33:35;;;;;;;9.67;5.80;;;;;;;11.93;100.00;101030.84;5047256;28;20656;-76
2023/01/02 07:36:04;;;;;;;12.67;5.57;;;;;;;11.94;100.00;101028.28;5043168;28;20190;-76
2023/01/02 07:38:30;;;;;;;9.53;5.87;;;;;;;11.94;100.00;101038.56;5038366;28;20221;-76
2023/01/02 07:40:55;;;;;;;14.80;6.17;;;;;;;11.95;100.00;101036.88;5050927;28;20229;-76
2023/01/02 07:43:21;;;;;;;12.13;6.30;;;;;;;11.95;100.00;101042.88;5036237;28;20201;-76
2023/01/02 07:45:47;;;;;;;12.37;6.40;;;;;;;11.94;100.00;101046.25;5042491;28;20663;-75
2023/01/02 07:48:12;;;;;;;8.03;5.63;;;;;;;11.95;100.00;101044.56;5044564;28;20214;-76
2023/01/02 07:50:38;;;;;;;15.83;6.33;;;;;;;11.96;100.00;101043.72;5044889;28;20271;-76
2023/01/02 07:53:04;;;;;;;10.17;5.70;;;;;;;11.96;100.00;101047.16;5041754;28;20272;-75
2023/01/02 07:55:29;;;;;;;9.63;6.33;;;;;;;11.98;100.00;101045.47;5044265;28;20200;-76
2023/01/02 07:57:55;;;;;;;9.93;5.50;;;;;;;12.00;100.00;101043.81;5023926;28;20197;-76
2023/01/02 08:00:20;;;;;;;15.27;5.77;;;;;;;12.05;100.00;101047.31;5045327;28;20221;-75
2023/01/02 08:02:48;;;;;;;10.63;5.27;;;;;;;12.05;100.00;101049.00;5023875;28;20204;-75
2023/01/02 08:05:17;;;;;;;12.63;5.03;;;;;;;12.08;100.00;101051.63;5030268;28;20209;-75
2023/01/02 08:07:43;;;;;;;10.47;5.40;;;;;;;12.12;100.00;101048.28;5047005;28;20200;-75
2023/01/02 08:10:10;;;;;;;7.17;5.63;;;;;;;12.21;100.00;101049.28;5042502;28;20226;-75
2023/01/02 08:12:36;;;;;;;10.43;5.00;;;;;;;12.27;100.00;101045.94;5048664;28;20193;-76
2023/01/02 08:15:02;;;;;;;11.93;5.23;;;;;;;12.27;100.00;101053.66;5025284;28;20181;-76
2023/01/02 08:17:30;;;;;;;10.60;5.23;;;;;;;12.29;100.00;101045.13;5023792;28;20200;-76
2023/01/02 08:19:55;;;;;;;9.93;5.13;;;;;;;12.33;100.00;101039.22;5038648;28;20229;-76
2023/01/02 08:22:21;;;;;;;9.90;5.10;;;;;;;12.39;100.00;101038.44;5039940;28;20208;-75
2023/01/02 08:24:47;;;;;;;11.70;4.73;;;;;;;12.43;100.00;101040.19;5041521;28;20193;-75
2023/01/02 08:27:12;;;;;;;7.53;4.67;;;;;;;12.53;100.00;101044.66;5040514;28;20198;-75
2023/01/02 08:29:37;;;;;;;8.53;4.60;;;;;;;12.50;100.00;101042.03;5038622;28;20226;-75
2023/01/02 08:32:03;;;;;;;8.57;4.57;;;;;;;12.51;100.00;101049.75;5037185;28;20244;-75
2023/01/02 08:34:29;;;;;;;11.80;4.63;;;;;;;12.54;100.00;101052.34;5045656;28;20288;-76
2023/01/02 08:36:54;;;;;;;11.53;4.37;;;;;;;12.59;100.00;101060.16;5040156;28;20206;-75
2023/01/02 08:39:19;;;;;;;8.63;4.10;;;;;;;12.62;100.00;101068.75;5039325;28;20193;-75
2023/01/02 08:41:45;;;;;;;12.53;4.57;;;;;;;12.63;100.00;101067.91;5047256;28;20206;-75
2023/01/02 08:44:10;;;;;;;8.97;4.30;;;;;;;12.69;100.00;101057.75;5044979;28;20255;-77
2023/01/02 08:46:36;;;;;;;10.90;3.83;;;;;;;12.72;100.00;101062.06;5035191;28;20229;-75
2023/01/02 08:49:01;;;;;;;8.93;3.90;;;;;;;12.74;100.00;101061.22;5045047;28;20211;-75
2023/01/02 08:51:27;;;;;;;7.97;4.47;;;;;;;12.76;100.00;101056.13;5045027;28;20220;-77
2023/01/02 08:53:53;;;;;;;9.70;3.57;;;;;;;12.77;100.00;101058.69;5032362;28;20202;-77
2023/01/02 08:56:25;;;;;;;10.60;3.50;;;;;;;12.81;100.00;101075.88;5049680;28;20292;-77
2023/01/02 08:59:00;;;;;;;9.83;3.90;;;;;;;12.88;100.00;101071.69;5050753;28;20236;-76
2023/01/02 09:01:28;;;;;;;6.80;3.57;;;;;;;12.88;100.00;101076.84;5051335;28;20213;-76
2023/01/02 09:03:54;;;;;;;6.77;3.90;;;;;;;12.85;100.00;101069.06;5032747;28;20189;-76
2023/01/02 09:06:21;;;;;;;7.50;3.37;;;;;;;12.84;100.00;101075.94;5044418;28;20243;-76
2023/01/02 09:08:47;;;;;;;7.90;3.70;;;;;;;12.89;100.00;101075.97;5041482;28;20218;-76
2023/01/02 09:11:43;;;;;;;7.77;4.13;;;;;;;12.95;100.00;101082.06;5040570;28;20221;-75
2023/01/02 09:14:08;;;;;;;8.07;3.70;;;;;;;12.98;100.00;101083.00;5011944;28;20784;-76
2023/01/02 09:16:34;;;;;;;7.43;3.80;;;;;;;12.96;100.00;101085.53;5034040;28;20280;-76
2023/01/02 09:19:00;;;;;;;7.77;3.77;;;;;;;12.96;100.00;101077.81;5048033;28;20224;-76
2023/01/02 09:21:27;;;;;;;9.23;3.60;;;;;;;12.97;99.82;101083.81;5042818;28;20587;-76
2023/01/02 09:23:52;;;;;;;9.30;3.53;;;;;;;13.00;99.43;101081.31;5023705;28;20190;-76
2023/01/02 09:26:18;;;;;;;9.60;3.63;;;;;;;12.99;99.73;101072.75;5044878;28;20194;-76
2023/01/02 09:28:44;;;;;;;7.03;3.80;;;;;;;13.01;99.62;101080.47;5042485;28;20210;-76
2023/01/02 09:31:11;;;;;;;7.47;3.83;;;;;;;13.02;99.77;101079.63;5047316;28;20215;-77
2023/01/02 09:33:38;;;;;;;8.73;3.90;;;;;;;13.02;99.18;101077.91;5043027;28;20186;-76
2023/01/02 09:36:06;;;;;;;6.83;3.60;;;;;;;13.04;99.15;101086.53;5043262;28;20194;-77
2023/01/02 09:38:32;;;;;;;8.53;3.53;;;;;;;13.05;98.85;101077.09;5025987;28;20189;-76
2023/01/02 09:41:01;;;;;;;8.50;3.40;;;;;;;13.08;98.89;101093.41;5044806;28;20568;-76
2023/01/02 09:43:35;;;;;;;7.50;3.70;;;;;;;13.09;98.82;101073.72;5046735;28;20259;-76
2023/01/02 09:46:03;;;;;;;8.80;3.63;;;;;;;13.08;98.68;101082.28;5048811;28;20610;-77
2023/01/02 09:48:35;;;;;;;7.63;3.30;;;;;;;13.11;98.14;101085.75;5029046;28;20267;-77
2023/01/02 09:51:02;;;;;;;9.20;3.73;;;;;;;13.13;98.26;101072.91;5046603;28;20259;-76
2023/01/02 09:53:28;;;;;;;8.90;3.67;;;;;;;13.17;98.05;101080.66;5032783;28;20198;-77
2023/01/02 09:56:01;;;;;;;11.10;4.17;;;;;;;13.24;97.82;101082.50;5051247;28;20186;-77
2023/01/02 09:58:26;;;;;;;8.17;3.60;;;;;;;13.28;96.97;101073.97;5043660;28;20226;-75
2023/01/02 10:00:52;;;;;;;8.23;3.57;;;;;;;13.30;97.54;101074.00;5046139;28;20244;-75
2023/01/02 10:03:40;;;;;;;7.67;3.77;;;;;;;13.31;97.38;101073.16;5050231;28;20186;-76
2023/01/02 10:06:20;;;;;;;4.87;3.37;;;;;;;13.36;97.11;101076.63;5038592;28;20194;-76
2023/01/02 10:08:56;;;;;;;8.37;4.07;;;;;;;13.44;96.13;101085.31;5047758;28;20221;-76
2023/01/02 10:11:43;;;;;;;7.97;3.70;;;;;;;13.49;95.92;101087.06;5045525;28;20684;-76
2023/01/02 10:14:24;;;;;;;7.37;3.67;;;;;;;13.51;96.07;101076.78;5045994;28;20281;-74
2023/01/02 10:16:53;;;;;;;8.47;3.97;;;;;;;13.54;94.93;101089.72;5049629;28;20562;-75
2023/01/02 10:19:28;;;;;;;9.23;3.40;;;;;;;13.56;95.41;101083.72;5050090;28;20277;-76
2023/01/02 10:21:58;;;;;;;9.87;3.80;;;;;;;13.59;95.25;101088.94;5039504;28;20204;-76
2023/01/02 10:24:32;;;;;;;7.83;3.47;;;;;;;13.71;94.51;101083.03;5043463;28;20198;-75
2023/01/02 10:27:00;;;;;;;5.80;3.10;;;;;;;13.84;93.59;101079.72;5042355;28;20197;-75
2023/01/02 10:29:34;;;;;;;7.57;3.47;;;;;;;13.96;93.08;101077.28;5046351;28;20278;-76
2023/01/02 10:31:59;;;;;;;9.20;3.17;;;;;;;13.78;93.27;101096.00;5024814;28;20201;-75
2023/01/02 10:34:35;;;;;;;9.07;3.77;;;;;;;13.76;93.32;101099.41;5041594;28;20202;-76
2023/01/02 10:37:01;;;;;;;6.57;3.53;;;;;;;13.72;93.59;101080.47;5050483;28;20200;-75
2023/01/02 10:39:31;;;;;;;6.53;3.40;;;;;;;13.78;93.52;101080.53;5020125;28;20272;-77
2023/01/02 10:41:58;;;;;;;9.27;3.20;;;;;;;13.82;93.03;101073.72;5039166;28;20648;-75
2023/01/02 10:44:30;;;;;;;6.80;3.40;;;;;;;13.85;92.07;101066.03;5037280;28;20190;-76
2023/01/02 10:46:57;;;;;;;4.10;3.10;;;;;;;13.86;91.97;101076.31;5054548;28;20188;-76
2023/01/02 10:49:24;;;;;;;7.20;3.27;;;;;;;13.89;91.23;101075.47;5023316;28;20206;-76
2023/01/02 10:51:58;;;;;;;4.70;2.90;;;;;;;13.89;90.62;101080.63;5031573;28;20201;-76
2023/01/02 10:54:23;;;;;;;6.90;2.90;;;;;;;13.88;90.57;101076.34;5044161;28;20302;-74
2023/01/02 10:56:49;;;;;;;8.03;3.20;;;;;;;13.85;90.93;101082.31;5047030;28;20217;-74
2023/01/02 10:59:21;;;;;;;6.23;3.10;;;;;;;13.79;91.21;101089.13;5029895;28;20678;-75
2023/01/02 11:01:58;;;;;;;5.77;3.20;;;;;;;13.73;91.53;101097.66;5045287;28;20197;-75
2023/01/02 11:04:27;;;;;;;6.23;3.13;;;;;;;13.67;92.60;101113.00;5049408;28;20607;-75
2023/01/02 11:06:54;;;;;;;7.37;3.37;;;;;;;13.67;92.62;101113.00;5022900;28;20202;-74
2023/01/02 11:09:26;;;;;;;6.90;3.20;;;;;;;13.67;92.74;101113.00;5042875;28;20606;-77
2023/01/02 11:11:54;;;;;;;4.23;3.10;;;;;;;13.65;92.87;101113.84;5046310;28;20189;-75
2023/01/02 11:14:34;;;;;;;4.73;3.00;;;;;;;13.58;92.97;101104.34;5045507;28;20193;-75
2023/01/02 11:17:04;;;;;;;10.63;4.00;;;;;;;13.56;92.46;101112.03;5042298;28;20232;-75
2023/01/02 11:19:29;;;;;;;3.73;3.00;;;;;;;13.62;92.73;101111.25;5040996;28;20233;-75
2023/01/02 11:21:55;;;;;;;5.90;3.00;;;;;;;13.69;92.54;101110.47;5041651;28;20236;-75
2023/01/02 11:24:25;;;;;;;4.07;2.83;;;;;;;13.72;92.12;101111.34;5049403;28;20181;-76
2023/01/02 11:26:52;;;;;;;6.30;3.40;;;;;;;13.77;91.94;101122.56;5044540;28;20194;-76